createdAt,value
2023-10-07T00:02:32.204Z,99.95
2023-10-07T00:05:01.313Z,99.90
2023-10-07T00:07:33.469Z,99.03
2023-10-07T00:10:07.227Z,98.30
2023-10-07T00:12:37.893Z,97.27
2023-10-07T00:15:12.562Z,97.93
2023-10-07T00:17:44.332Z,97.40
2023-10-07T00:20:14.056Z,95.16
2023-10-07T00:22:48.834Z,95.27
2023-10-07T00:25:20.605Z,95.73
2023-10-07T00:27:51.195Z,95.78
2023-10-07T00:30:23.519Z,95.20
2023-10-07T00:32:53.125Z,93.92
2023-10-07T00:35:22.034Z,94.15
2023-10-07T00:37:51.258Z,93.23
2023-10-07T00:40:32.482Z,92.93
2023-10-07T00:43:08.718Z,92.39
2023-10-07T00:45:37.701Z,92.13
2023-10-07T00:48:12.293Z,92.52
2023-10-07T00:50:41.418Z,92.21
2023-10-07T00:53:13.893Z,91.41
2023-10-07T00:55:43.340Z,91.37
2023-10-07T00:58:20.868Z,91.62
2023-10-07T01:00:50.833Z,90.95
2023-10-07T01:03:32.074Z,90.61
2023-10-07T01:06:13.810Z,91.52
2023-10-07T01:08:51.506Z,92.04
2023-10-07T01:11:27.270Z,92.34
2023-10-07T01:14:01.206Z,91.74
2023-10-07T01:16:38.001Z,91.59
2023-10-07T01:19:20.235Z,91.74
2023-10-07T01:21:56.016Z,90.93
2023-10-07T01:24:44.593Z,90.52
2023-10-07T01:27:23.088Z,90.19
2023-10-07T01:30:01.452Z,89.19
2023-10-07T01:32:33.760Z,89.37
2023-10-07T01:35:07.501Z,89.70
2023-10-07T01:37:45.252Z,89.64
2023-10-07T01:40:18.567Z,89.66
2023-10-07T01:42:47.730Z,88.14
2023-10-07T01:45:23.442Z,88.50
2023-10-07T01:47:56.956Z,86.64
2023-10-07T01:50:26.467Z,87.12
2023-10-07T01:52:57.537Z,86.37
2023-10-07T01:55:29.634Z,86.60
2023-10-07T01:57:58.793Z,85.97
2023-10-07T02:00:43.775Z,86.33
2023-10-07T02:03:16.438Z,85.64
2023-10-07T02:08:42.806Z,84.30
2023-10-07T02:11:16.781Z,84.00
2023-10-07T02:13:46.756Z,84.63
2023-10-07T02:16:18.134Z,83.78
2023-10-07T02:18:49.158Z,83.09
2023-10-07T02:21:21.950Z,82.85
2023-10-07T02:23:51.560Z,82.89
2023-10-07T02:26:22.218Z,83.17
2023-10-07T02:28:52.911Z,82.42
2023-10-07T02:31:23.077Z,82.18
2023-10-07T02:33:54.347Z,81.57
2023-10-07T02:36:31.157Z,81.57
2023-10-07T02:39:03.972Z,81.78
2023-10-07T02:41:34.649Z,81.66
2023-10-07T02:44:06.549Z,81.24
2023-10-07T02:46:36.183Z,81.11
2023-10-07T02:49:11.478Z,80.53
2023-10-07T02:51:48.332Z,79.89
2023-10-07T02:54:19.379Z,79.65
2023-10-07T02:56:57.332Z,79.75
2023-10-07T02:59:30.461Z,80.30
2023-10-07T03:02:20.999Z,80.42
2023-10-07T03:05:13.928Z,78.64
2023-10-07T03:07:43.997Z,78.50
2023-10-07T03:10:19.899Z,78.48
2023-10-07T03:12:58.421Z,78.02
2023-10-07T03:15:42.771Z,77.88
2023-10-07T03:18:24.767Z,76.66
2023-10-07T03:21:07.695Z,77.31
2023-10-07T03:23:47.163Z,76.68
2023-10-07T03:26:19.395Z,76.61
2023-10-07T03:28:53.547Z,75.11
2023-10-07T03:31:34.343Z,76.10
2023-10-07T03:34:09.036Z,75.69
2023-10-07T03:36:46.593Z,75.72
2023-10-07T03:39:26.342Z,75.67
2023-10-07T03:42:00.885Z,75.36
2023-10-07T03:44:32.864Z,74.61
2023-10-07T03:47:02.042Z,73.62
2023-10-07T03:49:35.851Z,73.93
2023-10-07T03:52:09.819Z,74.16
2023-10-07T03:54:42.167Z,74.39
2023-10-07T03:57:11.661Z,73.13
2023-10-07T03:59:42.178Z,72.22
2023-10-07T04:02:28.745Z,72.42
2023-10-07T04:05:02.338Z,72.12
2023-10-07T04:07:32.488Z,71.64
2023-10-07T04:10:13.490Z,71.10
2023-10-07T04:12:42.432Z,71.28
2023-10-07T04:15:14.411Z,70.40
2023-10-07T04:17:44.652Z,69.39
2023-10-07T04:20:21.683Z,68.28
2023-10-07T04:22:59.527Z,68.19
2023-10-07T04:25:29.270Z,68.54
2023-10-07T04:27:59.396Z,68.39
2023-10-07T04:30:40.585Z,67.85
2023-10-07T04:33:11.663Z,68.47
2023-10-07T04:35:41.120Z,68.53
2023-10-07T04:38:21.921Z,67.78
2023-10-07T04:41:10.701Z,68.31
2023-10-07T04:43:50.022Z,68.95
2023-10-07T04:46:24.642Z,69.73
2023-10-07T04:48:56.143Z,70.50
2023-10-07T04:51:47.851Z,71.11
2023-10-07T04:54:22.885Z,71.40
2023-10-07T04:57:02.105Z,71.44
2023-10-07T04:59:31.449Z,72.14
2023-10-07T05:02:03.404Z,72.65
2023-10-07T05:04:34.110Z,73.21
2023-10-07T05:07:02.632Z,72.58
2023-10-07T05:09:33.943Z,72.88
2023-10-07T05:12:07.930Z,72.94
2023-10-07T05:14:37.546Z,73.33
2023-10-07T05:17:11.669Z,73.48
2023-10-07T05:19:40.783Z,73.70
2023-10-07T05:22:16.625Z,73.47
2023-10-07T05:24:48.414Z,73.28
2023-10-07T05:27:18.734Z,73.13
2023-10-07T05:29:48.124Z,73.27
2023-10-07T05:32:19.390Z,72.85
2023-10-07T05:34:48.594Z,72.24
2023-10-07T05:37:17.775Z,71.73
2023-10-07T05:39:47.377Z,70.09
2023-10-07T05:42:16.536Z,69.13
2023-10-07T05:44:45.484Z,69.67
2023-10-07T05:47:14.739Z,69.64
2023-10-07T05:49:45.125Z,69.64
2023-10-07T05:52:14.351Z,69.27
2023-10-07T05:54:44.823Z,69.10
2023-10-07T05:57:14.478Z,69.96
2023-10-07T05:59:44.310Z,70.48
2023-10-07T06:02:16.448Z,71.11
2023-10-07T06:04:46.782Z,71.27
2023-10-07T06:07:16.204Z,71.56
2023-10-07T06:09:45.571Z,71.53
2023-10-07T06:12:17.160Z,70.77
2023-10-07T06:14:46.056Z,71.10
2023-10-07T06:17:15.283Z,70.99
2023-10-07T06:19:45.414Z,70.33
2023-10-07T06:22:17.359Z,70.70
2023-10-07T06:24:46.390Z,70.23
2023-10-07T06:27:21.590Z,69.84
2023-10-07T06:29:52.291Z,69.61
2023-10-07T06:32:27.348Z,69.75
2023-10-07T06:34:57.916Z,70.53
2023-10-07T06:37:30.286Z,70.54
2023-10-07T06:40:02.439Z,70.55
2023-10-07T06:42:31.870Z,70.72
2023-10-07T06:45:09.866Z,70.78
2023-10-07T06:47:39.425Z,70.27
2023-10-07T06:50:09.015Z,70.48
2023-10-07T06:52:39.672Z,70.86
2023-10-07T06:55:13.650Z,70.79
2023-10-07T06:57:47.839Z,69.91
2023-10-07T07:00:24.132Z,70.13
2023-10-07T07:02:59.925Z,70.33
2023-10-07T07:05:29.659Z,69.46
2023-10-07T07:08:05.083Z,69.67
2023-10-07T07:10:34.243Z,69.82
2023-10-07T07:13:06.861Z,69.70
2023-10-07T07:15:38.992Z,70.17
2023-10-07T07:18:15.975Z,69.53
2023-10-07T07:21:13.844Z,70.29
2023-10-07T07:23:46.805Z,70.71
2023-10-07T07:26:19.845Z,70.60
2023-10-07T07:28:48.561Z,70.06
2023-10-07T07:31:27.419Z,70.11
2023-10-07T07:34:07.941Z,69.99
2023-10-07T07:36:49.309Z,69.80
2023-10-07T07:39:21.288Z,69.29
2023-10-07T07:41:57.826Z,69.89
2023-10-07T07:44:34.583Z,70.38
2023-10-07T07:47:05.423Z,70.00
2023-10-07T07:49:35.350Z,69.31
2023-10-07T07:52:09.409Z,69.55
2023-10-07T07:54:40.196Z,68.71
2023-10-07T07:57:10.029Z,69.50
2023-10-07T07:59:40.192Z,70.21
2023-10-07T08:02:14.637Z,70.04
2023-10-07T08:04:49.964Z,69.35
2023-10-07T08:07:25.702Z,69.44
2023-10-07T08:09:59.743Z,70.25
2023-10-07T08:12:32.742Z,68.97
2023-10-07T08:15:11.016Z,70.05
2023-10-07T08:17:40.990Z,69.75
2023-10-07T08:20:11.642Z,68.99
2023-10-07T08:22:46.482Z,69.10
2023-10-07T08:25:26.838Z,69.47
2023-10-07T08:27:56.630Z,69.52
2023-10-07T08:30:38.636Z,69.17
2023-10-07T08:33:13.753Z,68.87
2023-10-07T08:35:45.207Z,66.75
2023-10-07T08:38:22.985Z,67.54
2023-10-07T08:41:05.572Z,67.99
2023-10-07T08:43:39.118Z,68.75
2023-10-07T08:46:13.434Z,68.07
2023-10-07T08:48:45.770Z,68.80
2023-10-07T08:51:22.603Z,68.86
2023-10-07T08:53:53.818Z,69.37
2023-10-07T08:56:26.702Z,69.38
2023-10-07T08:58:55.867Z,69.55
2023-10-07T09:01:26.299Z,67.81
2023-10-07T09:04:02.194Z,68.42
2023-10-07T09:06:35.101Z,68.95
2023-10-07T09:09:08.191Z,68.51
2023-10-07T09:11:39.296Z,66.69
2023-10-07T09:14:09.547Z,67.26
2023-10-07T09:16:40.062Z,66.89
2023-10-07T09:19:14.487Z,64.70
2023-10-07T09:21:46.501Z,63.63
2023-10-07T09:24:25.419Z,63.57
2023-10-07T09:26:58.853Z,63.28
2023-10-07T09:29:34.105Z,63.78
2023-10-07T09:32:17.628Z,62.99
2023-10-07T09:34:48.354Z,63.64
2023-10-07T09:37:22.351Z,62.88
2023-10-07T09:40:17.676Z,63.04
2023-10-07T09:42:58.479Z,63.08
2023-10-07T09:45:33.267Z,62.99
2023-10-07T09:48:06.967Z,62.66
2023-10-07T09:50:36.473Z,61.99
2023-10-07T09:53:26.275Z,60.60
2023-10-07T09:56:13.873Z,59.46
2023-10-07T09:59:01.415Z,58.48
2023-10-07T10:01:38.917Z,59.06
2023-10-07T10:04:23.224Z,55.65
2023-10-07T10:07:06.678Z,55.38
2023-10-07T10:09:46.966Z,51.77
2023-10-07T10:12:23.562Z,51.70
2023-10-07T10:15:18.871Z,51.03
2023-10-07T10:17:50.240Z,50.07
2023-10-07T10:20:22.971Z,49.44
2023-10-07T10:22:51.281Z,48.77
2023-10-07T10:25:33.176Z,49.37
2023-10-07T10:28:03.392Z,48.06
2023-10-07T10:30:34.123Z,47.96
2023-10-07T10:33:09.500Z,48.15
2023-10-07T10:35:41.632Z,48.45
2023-10-07T10:38:14.354Z,47.56
2023-10-07T10:40:47.007Z,46.86
2023-10-07T10:43:23.920Z,46.63
2023-10-07T10:46:06.469Z,47.83
2023-10-07T10:48:36.290Z,46.63
2023-10-07T10:51:06.854Z,45.07
2023-10-07T10:53:36.893Z,45.68
2023-10-07T10:56:07.076Z,46.22
2023-10-07T10:58:38.172Z,43.97
2023-10-07T11:01:09.035Z,44.82
2023-10-07T11:03:39.327Z,43.26
2023-10-07T11:06:11.130Z,42.66
2023-10-07T11:08:41.542Z,42.31
2023-10-07T11:11:12.143Z,41.46
2023-10-07T11:13:42.056Z,42.49
2023-10-07T11:16:13.387Z,42.46
2023-10-07T11:18:46.855Z,43.38
2023-10-07T11:21:19.409Z,42.15
2023-10-07T11:23:50.872Z,42.98
2023-10-07T11:26:21.140Z,43.10
2023-10-07T11:28:50.755Z,43.55
2023-10-07T11:31:31.774Z,43.27
2023-10-07T11:34:01.637Z,43.49
2023-10-07T11:36:31.601Z,43.82
2023-10-07T11:39:00.496Z,43.64
2023-10-07T11:41:30.624Z,43.43
2023-10-07T11:43:59.801Z,43.98
2023-10-07T11:46:31.098Z,43.51
2023-10-07T11:49:01.458Z,41.93
2023-10-07T11:51:33.453Z,41.31
2023-10-07T11:54:02.545Z,40.18
2023-10-07T11:56:31.774Z,39.58
2023-10-07T11:59:00.831Z,39.47
2023-10-07T12:01:31.463Z,39.72
2023-10-07T12:04:00.462Z,40.26
2023-10-07T12:06:30.589Z,41.60
2023-10-07T12:09:07.481Z,41.18
2023-10-07T12:11:36.761Z,41.20
2023-10-07T12:14:06.299Z,41.02
2023-10-07T12:16:36.934Z,41.16
2023-10-07T12:19:06.113Z,40.66
2023-10-07T12:21:36.682Z,40.61
2023-10-07T12:24:07.483Z,40.71
2023-10-07T12:26:36.732Z,40.58
2023-10-07T12:29:05.673Z,39.96
2023-10-07T12:31:37.133Z,40.76
2023-10-07T12:34:06.603Z,40.25
2023-10-07T12:36:35.827Z,39.85
2023-10-07T12:39:11.596Z,39.86
2023-10-07T12:41:41.152Z,40.33
2023-10-07T12:44:11.558Z,40.39
2023-10-07T12:46:44.710Z,40.08
2023-10-07T12:49:15.587Z,39.74
2023-10-07T12:51:46.280Z,39.96
2023-10-07T12:54:15.281Z,39.16
2023-10-07T12:56:44.495Z,39.00
2023-10-07T12:59:24.704Z,39.46
2023-10-07T13:01:57.707Z,39.54
2023-10-07T13:04:31.149Z,39.81
2023-10-07T13:07:05.415Z,40.62
2023-10-07T13:09:34.460Z,41.67
2023-10-07T13:12:07.921Z,40.91
2023-10-07T13:14:36.922Z,41.05
2023-10-07T13:17:07.579Z,40.71
2023-10-07T13:19:37.396Z,41.30
2023-10-07T13:22:07.258Z,41.37
2023-10-07T13:24:36.103Z,42.08
2023-10-07T13:27:05.353Z,41.76
2023-10-07T13:29:35.979Z,42.61
2023-10-07T13:32:06.082Z,43.25
2023-10-07T13:34:39.635Z,43.43
2023-10-07T13:37:13.162Z,43.88
2023-10-07T13:39:42.937Z,43.64
2023-10-07T13:42:12.543Z,43.62
2023-10-07T13:44:42.322Z,43.40
2023-10-07T13:47:12.404Z,44.16
2023-10-07T13:49:43.322Z,44.70
2023-10-07T13:52:19.617Z,44.53
2023-10-07T13:55:09.279Z,44.88
2023-10-07T13:57:38.527Z,44.38
2023-10-07T14:00:28.332Z,42.72
2023-10-07T14:02:58.244Z,43.02
2023-10-07T14:05:30.071Z,43.05
2023-10-07T14:07:59.323Z,43.32
2023-10-07T14:10:29.039Z,42.22
2023-10-07T14:12:58.269Z,41.98
2023-10-07T14:15:27.342Z,41.16
2023-10-07T14:17:56.576Z,41.61
2023-10-07T14:20:25.595Z,41.89
2023-10-07T14:22:57.659Z,42.04
2023-10-07T14:25:26.720Z,42.43
2023-10-07T14:27:55.910Z,42.80
2023-10-07T14:30:24.826Z,42.97
2023-10-07T14:32:54.134Z,43.18
2023-10-07T14:35:23.089Z,43.19
2023-10-07T14:37:52.392Z,43.43
2023-10-07T14:40:22.724Z,43.33
2023-10-07T14:42:52.711Z,43.68
2023-10-07T14:45:22.747Z,43.74
2023-10-07T14:47:54.556Z,44.66
2023-10-07T14:50:23.850Z,44.27
2023-10-07T14:52:53.186Z,44.41
2023-10-07T14:55:24.943Z,44.86
2023-10-07T14:57:54.879Z,44.83
2023-10-07T15:00:24.652Z,45.16
2023-10-07T15:02:55.008Z,44.87
2023-10-07T15:05:27.752Z,44.93
2023-10-07T15:07:57.100Z,45.31
2023-10-07T15:10:29.564Z,45.25
2023-10-07T15:12:59.669Z,45.97
2023-10-07T15:15:29.885Z,45.62
2023-10-07T15:17:59.159Z,45.43
2023-10-07T15:20:28.140Z,46.19
2023-10-07T15:22:57.412Z,46.90
2023-10-07T15:25:28.755Z,46.72
2023-10-07T15:27:57.975Z,46.71
2023-10-07T15:30:26.857Z,47.36
2023-10-07T15:32:56.223Z,47.57
2023-10-07T15:35:25.230Z,47.83
2023-10-07T15:37:54.495Z,48.36
2023-10-07T15:40:23.370Z,48.38
2023-10-07T15:42:53.953Z,48.88
2023-10-07T15:45:23.155Z,49.03
2023-10-07T15:47:52.360Z,49.45
2023-10-07T15:50:21.293Z,49.67
2023-10-07T15:52:51.937Z,49.21
2023-10-07T15:55:21.141Z,49.61
2023-10-07T15:57:50.354Z,49.99
2023-10-07T16:00:20.679Z,50.14
2023-10-07T16:02:50.599Z,49.99
2023-10-07T16:05:19.745Z,50.62
2023-10-07T16:07:49.035Z,50.80
2023-10-07T16:10:18.342Z,50.79
2023-10-07T16:12:48.130Z,50.75
2023-10-07T16:15:17.265Z,51.34
2023-10-07T16:17:47.812Z,51.62
2023-10-07T16:20:19.866Z,51.49
2023-10-07T16:22:49.661Z,51.33
2023-10-07T16:25:20.902Z,51.44
2023-10-07T16:27:50.418Z,51.58
2023-10-07T16:30:19.425Z,51.66
2023-10-07T16:32:50.164Z,51.74
2023-10-07T16:35:19.452Z,52.09
2023-10-07T16:37:49.108Z,51.88
2023-10-07T16:40:19.883Z,53.14
2023-10-07T16:42:49.301Z,52.77
2023-10-07T16:45:18.159Z,52.50
2023-10-07T16:47:47.621Z,53.46
2023-10-07T16:50:18.091Z,52.46
2023-10-07T16:52:49.116Z,54.20
2023-10-07T16:55:19.403Z,53.82
2023-10-07T16:57:48.741Z,53.74
2023-10-07T17:00:18.183Z,53.90
2023-10-07T17:02:48.692Z,54.41
2023-10-07T17:05:20.613Z,55.21
2023-10-07T17:07:51.264Z,54.34
2023-10-07T17:10:21.790Z,54.54
2023-10-07T17:12:52.526Z,54.12
2023-10-07T17:15:22.760Z,54.87
2023-10-07T17:17:52.086Z,55.20
2023-10-07T17:20:22.400Z,54.84
2023-10-07T17:22:51.672Z,54.91
2023-10-07T17:25:20.561Z,55.17
2023-10-07T17:27:50.037Z,55.10
2023-10-07T17:30:20.853Z,55.34
2023-10-07T17:32:52.504Z,55.23
2023-10-07T17:35:24.472Z,56.04
2023-10-07T17:38:01.068Z,56.19
2023-10-07T17:40:33.926Z,55.67
2023-10-07T17:43:09.411Z,55.54
2023-10-07T17:45:42.268Z,56.27
2023-10-07T17:48:13.524Z,56.26
2023-10-07T17:50:44.220Z,56.56
2023-10-07T17:53:14.484Z,56.54
2023-10-07T17:55:46.787Z,57.15
2023-10-07T17:58:16.073Z,57.18
2023-10-07T18:00:48.087Z,57.21
2023-10-07T18:03:21.948Z,57.94
2023-10-07T18:05:56.285Z,57.92
2023-10-07T18:08:26.942Z,57.56
2023-10-07T18:10:57.594Z,57.69
2023-10-07T18:13:28.338Z,58.24
2023-10-07T18:16:00.721Z,58.13
2023-10-07T18:18:32.044Z,58.26
2023-10-07T18:21:02.737Z,58.13
2023-10-07T18:23:34.762Z,57.30
2023-10-07T18:26:03.915Z,57.85
2023-10-07T18:28:33.111Z,57.80
2023-10-07T18:31:03.029Z,57.74
2023-10-07T18:33:35.524Z,58.20
2023-10-07T18:36:08.735Z,58.63
2023-10-07T18:38:39.214Z,58.56
2023-10-07T18:41:08.128Z,58.36
2023-10-07T18:43:37.467Z,58.96
2023-10-07T18:46:06.412Z,59.07
2023-10-07T18:48:36.384Z,59.16
2023-10-07T18:51:10.001Z,59.32
2023-10-07T18:53:39.539Z,59.50
2023-10-07T18:56:08.533Z,58.81
2023-10-07T18:58:37.817Z,59.82
2023-10-07T19:01:06.777Z,59.05
2023-10-07T19:03:36.187Z,58.89
2023-10-07T19:06:06.810Z,59.06
2023-10-07T19:08:37.429Z,59.15
2023-10-07T19:11:07.485Z,59.20
2023-10-07T19:13:36.893Z,60.25
2023-10-07T19:16:05.873Z,60.12
2023-10-07T19:18:35.250Z,60.80
2023-10-07T19:21:05.047Z,61.12
2023-10-07T19:23:34.325Z,60.77
2023-10-07T19:26:06.951Z,60.90
2023-10-07T19:28:36.365Z,61.08
2023-10-07T19:31:05.664Z,61.68
2023-10-07T19:33:34.978Z,61.02
2023-10-07T19:36:05.349Z,60.96
2023-10-07T19:38:35.089Z,61.70
2023-10-07T19:41:03.997Z,61.92
2023-10-07T19:43:34.594Z,61.84
2023-10-07T19:46:03.892Z,61.42
2023-10-07T19:48:33.698Z,61.77
2023-10-07T19:51:02.681Z,62.24
2023-10-07T19:53:33.198Z,62.12
2023-10-07T19:56:02.200Z,62.42
2023-10-07T19:58:31.330Z,62.43
2023-10-07T20:01:07.445Z,62.31
2023-10-07T20:03:37.019Z,62.69
2023-10-07T20:06:10.481Z,62.73
2023-10-07T20:08:41.326Z,63.40
2023-10-07T20:11:10.744Z,63.04
2023-10-07T20:13:40.219Z,63.42
2023-10-07T20:16:11.603Z,63.46
2023-10-07T20:18:41.725Z,63.04
2023-10-07T20:21:10.840Z,63.33
2023-10-07T20:23:40.060Z,63.67
2023-10-07T20:26:09.527Z,63.58
2023-10-07T20:28:38.775Z,63.07
2023-10-07T20:31:08.285Z,63.66
2023-10-07T20:33:39.271Z,63.33
2023-10-07T20:36:12.425Z,64.00
2023-10-07T20:38:41.686Z,64.12
2023-10-07T20:41:11.828Z,63.73
2023-10-07T20:43:41.702Z,64.21
2023-10-07T20:46:15.072Z,63.98
2023-10-07T20:48:46.626Z,64.11
2023-10-07T20:51:16.085Z,63.87
2023-10-07T20:53:54.909Z,64.44
2023-10-07T20:56:28.476Z,63.89
2023-10-07T20:58:59.273Z,64.91
2023-10-07T21:01:29.552Z,65.39
2023-10-07T21:04:00.366Z,64.79
2023-10-07T21:06:29.450Z,64.37
2023-10-07T21:08:58.803Z,64.81
2023-10-07T21:11:27.759Z,65.28
2023-10-07T21:13:59.519Z,65.12
2023-10-07T21:16:28.913Z,65.46
2023-10-07T21:19:00.227Z,65.34
2023-10-07T21:21:30.963Z,65.37
2023-10-07T21:24:00.462Z,64.75
2023-10-07T21:26:29.631Z,65.17
2023-10-07T21:28:59.592Z,64.97
2023-10-07T21:31:31.441Z,65.39
2023-10-07T21:34:01.900Z,65.98
2023-10-07T21:36:32.595Z,65.59
2023-10-07T21:39:01.782Z,65.01
2023-10-07T21:41:31.491Z,65.18
2023-10-07T21:44:00.939Z,64.73
2023-10-07T21:46:30.063Z,64.87
2023-10-07T21:48:59.450Z,64.78
2023-10-07T21:51:28.331Z,64.51
2023-10-07T21:53:59.781Z,64.82
2023-10-07T21:56:28.898Z,64.67
2023-10-07T21:58:58.296Z,64.72
2023-10-07T22:01:30.512Z,64.37
2023-10-07T22:04:00.049Z,63.86
2023-10-07T22:06:30.207Z,64.21
2023-10-07T22:09:02.116Z,64.10
2023-10-07T22:11:31.157Z,63.87
2023-10-07T22:14:00.902Z,63.92
2023-10-07T22:16:29.909Z,63.39
2023-10-07T22:19:00.927Z,63.39
2023-10-07T22:21:32.558Z,62.91
2023-10-07T22:24:03.319Z,62.87
2023-10-07T22:26:32.638Z,62.97
2023-10-07T22:29:04.951Z,62.91
2023-10-07T22:31:36.382Z,63.24
2023-10-07T22:34:07.692Z,63.06
2023-10-07T22:36:39.216Z,63.26
2023-10-07T22:39:21.087Z,63.39
2023-10-07T22:41:57.712Z,63.61
2023-10-07T22:44:27.179Z,63.15
2023-10-07T22:46:57.603Z,62.76
2023-10-07T22:49:28.224Z,62.93
2023-10-07T22:52:01.748Z,62.89
2023-10-07T22:54:33.932Z,62.83
2023-10-07T22:57:09.107Z,63.03
2023-10-07T22:59:40.028Z,62.77
2023-10-07T23:02:13.213Z,62.99
2023-10-07T23:04:48.769Z,62.27
2023-10-07T23:07:24.778Z,62.55
2023-10-07T23:10:00.226Z,62.61
2023-10-07T23:12:39.920Z,62.38
2023-10-07T23:15:15.529Z,61.67
2023-10-07T23:17:52.713Z,61.59
2023-10-07T23:20:28.355Z,61.69
2023-10-07T23:23:13.096Z,61.72
2023-10-07T23:25:49.786Z,61.55
2023-10-07T23:28:27.132Z,61.50
2023-10-07T23:31:26.861Z,61.04
2023-10-07T23:33:56.476Z,61.34
2023-10-07T23:36:25.813Z,62.29
2023-10-07T23:38:59.672Z,62.14
2023-10-07T23:41:32.912Z,61.83
2023-10-07T23:44:01.863Z,61.99
2023-10-07T23:46:33.093Z,61.18
2023-10-07T23:49:13.523Z,61.14
2023-10-07T23:51:46.489Z,60.88
2023-10-07T23:54:19.142Z,61.31
2023-10-07T23:56:51.639Z,61.75
2023-10-07T23:59:25.194Z,61.41
